New Harmony, Indiana
Current Conditions -  °F | °C
As of 10:15 PM on Wednesday 28 Jan 2015 (Local Time) from KCUL Reporting Station
Clear Clear  
Wind Chill: 33°   Ceiling: Unl
Heat Index: 40°   Visibility: 10mi
Dew Point: 32°   Wind: 10mph
Humidity: 74%   Direction: 150°SSE
Pressure: 29.99"   Gusts: NA
Location:  38.13°N, 87.94°W
Report Text: KCUL 290415Z AUTO 15009KT 10SM CLR 04/00 A2999 RMK AO2 T00430000
Loading
Personal Weather Stations






























Interactive Weather Map New forecast layout! Learn more

10-Day Weather Forecast

Advertisements
Track Severe Weather on mobile